Time;durP1;ratioP1;P1;durP2;ratioP2;P2;SDS_P1;SDS_P2;PMS_P1;PMS_P2;Temp;Humidity;BMP_temperature;BMP_pressure;BME280_temperature;BME280_humidity;BME280_pressure;Samples;Min_cycle;Max_cycle;Signal;HPM_P1;HPM_P2
2021/09/10 00:00:18;;;;;;;7.13;6.43;;;17.60;99.90;;;;;;472908;248;28870;-72
2021/09/10 00:02:19;;;;;;;6.33;5.73;;;17.60;99.90;;;;;;472752;249;28805;-71
2021/09/10 00:04:20;;;;;;;6.03;5.40;;;17.60;99.90;;;;;;472722;250;29309;-72
2021/09/10 00:06:21;;;;;;;5.83;5.33;;;17.60;99.90;;;;;;471289;249;29334;-71
2021/09/10 00:08:23;;;;;;;7.07;5.80;;;17.60;99.90;;;;;;470445;253;29385;-72
2021/09/10 00:10:24;;;;;;;7.10;6.40;;;17.60;99.90;;;;;;471833;248;29283;-69
2021/09/10 00:12:25;;;;;;;6.37;5.77;;;17.60;99.90;;;;;;472736;249;28897;-70
2021/09/10 00:14:26;;;;;;;5.87;5.30;;;17.50;99.90;;;;;;470454;249;28929;-70
2021/09/10 00:16:28;;;;;;;6.97;6.37;;;17.50;99.90;;;;;;471602;249;29002;-69
2021/09/10 00:18:29;;;;;;;8.70;5.90;;;17.50;99.90;;;;;;470371;253;28936;-69
2021/09/10 00:20:32;;;;;;;6.50;5.87;;;;;;;;;;470245;253;29079;-70
2021/09/10 00:22:35;;;;;;;6.30;5.70;;;;;;;;;;468764;253;26462;-70
2021/09/10 00:24:38;;;;;;;6.70;6.10;;;;;;;;;;466174;254;26923;-72
2021/09/10 00:26:41;;;;;;;7.87;6.93;;;;;;;;;;466175;254;26415;-72
2021/09/10 00:28:42;;;;;;;6.57;5.93;;;17.50;99.90;;;;;;466547;253;27590;-72
2021/09/10 00:30:44;;;;;;;7.03;6.40;;;;;;;;;;466544;253;28899;-72
2021/09/10 00:32:46;;;;;;;6.27;5.67;;;;;;;;;;466555;253;28049;-71
2021/09/10 00:34:47;;;;;;;6.13;5.60;;;17.50;99.90;;;;;;466571;253;27999;-71
2021/09/10 00:36:53;;;;;;;6.13;5.63;;;;;;;;;;466586;253;28952;-71
2021/09/10 00:38:54;;;;;;;6.73;6.13;;;17.50;99.90;;;;;;466570;253;26429;-72
2021/09/10 00:40:56;;;;;;;6.30;5.77;;;;;;;;;;466547;253;28918;-72
2021/09/10 00:42:58;;;;;;;5.80;5.23;;;17.70;99.90;;;;;;466443;253;27563;-72
2021/09/10 00:45:00;;;;;;;6.07;5.57;;;;;;;;;;466547;253;29035;-72
2021/09/10 00:47:01;;;;;;;6.20;5.60;;;17.70;99.90;;;;;;466523;253;28104;-72
2021/09/10 00:49:04;;;;;;;6.87;6.27;;;17.60;99.90;;;;;;466561;253;27699;-71
2021/09/10 00:51:05;;;;;;;6.50;5.90;;;18.30;99.90;;;;;;466517;253;26352;-69
2021/09/10 00:53:07;;;;;;;5.77;5.27;;;17.80;99.90;;;;;;466548;253;29019;-69
2021/09/10 00:55:08;;;;;;;5.97;5.47;;;17.60;99.90;;;;;;458849;258;28966;-72
2021/09/10 00:57:09;;;;;;;5.87;5.37;;;17.70;99.90;;;;;;458870;258;28852;-71
2021/09/10 00:59:10;;;;;;;6.63;6.03;;;17.70;99.90;;;;;;458851;258;28883;-72
2021/09/10 01:01:12;;;;;;;6.27;5.67;;;17.60;99.90;;;;;;458877;258;28989;-71
2021/09/10 01:03:13;;;;;;;5.77;5.17;;;17.70;99.90;;;;;;458843;258;28901;-71
2021/09/10 01:05:17;;;;;;;6.30;5.80;;;;;;;;;;458838;258;29001;-69
2021/09/10 01:07:20;;;;;;;6.23;5.70;;;;;;;;;;458807;258;26762;-72
2021/09/10 01:09:23;;;;;;;6.23;5.73;;;;;;;;;;458825;258;26909;-69
2021/09/10 01:11:33;;;;;;;6.03;5.30;;;;;;;;;;458852;258;26824;-70
2021/09/10 01:13:34;;;;;;;5.93;5.43;;;17.70;99.90;;;;;;458837;258;26854;-70
2021/09/10 01:15:36;;;;;;;5.43;4.90;;;;;;;;;;458833;258;29405;-69
2021/09/10 01:17:38;;;;;;;5.73;5.23;;;17.60;99.90;;;;;;458824;258;27529;-69
2021/09/10 01:19:41;;;;;;;6.00;5.50;;;;;;;;;;458867;258;28069;-71
2021/09/10 01:21:43;;;;;;;5.90;5.40;;;;;;;;;;466181;255;27013;-71
2021/09/10 01:23:45;;;;;;;5.87;5.37;;;;;;;;;;467473;253;27560;-69
2021/09/10 01:25:47;;;;;;;5.80;5.30;;;17.50;99.90;;;;;;469059;253;27566;-71
2021/09/10 01:27:48;;;;;;;5.47;5.07;;;17.50;99.90;;;;;;471472;248;28867;-72
2021/09/10 01:29:52;;;;;;;6.20;5.60;;;;;;;;;;471771;249;28871;-73
2021/09/10 01:31:54;;;;;;;5.50;4.80;;;;;;;;;;471765;252;26809;-72
2021/09/10 01:33:57;;;;;;;5.40;4.90;;;;;;;;;;471779;252;28054;-72
2021/09/10 01:35:59;;;;;;;6.03;5.53;;;17.50;99.90;;;;;;471779;252;26274;-72
2021/09/10 01:38:01;;;;;;;6.23;5.53;;;17.50;99.90;;;;;;471772;249;28826;-71
2021/09/10 01:40:04;;;;;;;5.83;5.10;;;;;;;;;;471762;249;27939;-72
2021/09/10 01:42:05;;;;;;;5.97;5.47;;;17.40;99.90;;;;;;471792;252;26378;-72
2021/09/10 01:44:07;;;;;;;6.17;5.57;;;;;;;;;;473180;249;28738;-71
2021/09/10 01:46:08;;;;;;;7.30;5.57;;;17.50;99.90;;;;;;471765;252;27516;-69
2021/09/10 01:48:12;;;;;;;5.87;5.37;;;;;;;;;;476294;249;29003;-69
2021/09/10 01:50:15;;;;;;;6.20;5.60;;;;;;;;;;477233;249;27168;-70
2021/09/10 01:52:16;;;;;;;5.13;4.70;;;17.50;99.90;;;;;;487641;235;26372;-72
2021/09/10 01:54:18;;;;;;;5.50;5.00;;;17.60;99.90;;;;;;496467;239;28839;-70
2021/09/10 01:56:20;;;;;;;5.00;4.60;;;;;;;;;;496453;239;28893;-69
2021/09/10 01:58:21;;;;;;;5.80;5.30;;;17.60;99.90;;;;;;496486;239;27577;-70
2021/09/10 02:00:24;;;;;;;4.90;4.37;;;;;;;;;;496463;239;28826;-69
2021/09/10 02:02:26;;;;;;;6.20;5.70;;;17.60;99.90;;;;;;483315;236;26373;-69
2021/09/10 02:04:30;;;;;;;6.23;5.73;;;;;;;;;;485478;245;27458;-70
2021/09/10 02:06:33;;;;;;;5.60;5.10;;;;;;;;;;485539;245;26275;-69
2021/09/10 02:08:35;;;;;;;6.27;5.67;;;;;;;;;;485483;245;26382;-70
2021/09/10 02:10:36;;;;;;;5.27;4.87;;;17.50;99.90;;;;;;485522;245;27569;-72
2021/09/10 02:12:37;;;;;;;6.13;5.17;;;17.50;99.90;;;;;;479430;240;29238;-71
2021/09/10 02:14:39;;;;;;;5.83;5.33;;;17.50;99.90;;;;;;478833;248;29289;-69
2021/09/10 02:16:40;;;;;;;5.17;4.77;;;17.50;99.90;;;;;;478902;248;29372;-69
2021/09/10 02:18:41;;;;;;;5.50;5.00;;;17.50;99.90;;;;;;478898;248;28830;-72
2021/09/10 02:20:42;;;;;;;5.47;4.93;;;17.50;99.90;;;;;;478888;248;28924;-71
2021/09/10 02:22:44;;;;;;;5.47;4.97;;;17.50;99.90;;;;;;484647;239;28705;-71
2021/09/10 02:24:45;;;;;;;5.10;4.70;;;17.50;99.90;;;;;;486128;244;28738;-69
2021/09/10 02:26:46;;;;;;;6.47;5.30;;;17.50;99.90;;;;;;486302;244;28864;-70
2021/09/10 02:28:47;;;;;;;5.40;4.90;;;17.50;99.90;;;;;;476968;249;28987;-70
2021/09/10 02:30:49;;;;;;;5.80;5.30;;;;;;;;;;470259;253;28953;-70
2021/09/10 02:32:53;;;;;;;5.10;4.70;;;;;;;;;;486522;244;27560;-70
2021/09/10 02:34:55;;;;;;;5.17;4.77;;;;;;;;;;486530;244;26813;-70
2021/09/10 02:36:56;;;;;;;5.70;5.20;;;17.40;99.90;;;;;;486523;244;27942;-69
2021/09/10 02:38:57;;;;;;;6.37;4.77;;;17.40;99.90;;;;;;476945;249;29384;-69
2021/09/10 02:40:59;;;;;;;5.40;4.90;;;;;;;;;;470234;253;28939;-69
2021/09/10 02:43:03;;;;;;;6.40;5.80;;;;;;;;;;486403;244;27554;-70
2021/09/10 02:45:06;;;;;;;5.70;5.20;;;;;;;;;;486411;244;26833;-70
2021/09/10 02:47:08;;;;;;;5.33;4.83;;;;;;;;;;486353;244;27629;-69
2021/09/10 02:49:09;;;;;;;5.40;4.90;;;17.30;99.90;;;;;;486355;244;27621;-70
2021/09/10 02:51:11;;;;;;;5.53;5.03;;;;;;;;;;476970;249;28882;-70
2021/09/10 02:53:13;;;;;;;6.40;5.80;;;;;;;;;;470257;252;27578;-70
2021/09/10 02:55:14;;;;;;;5.87;5.37;;;17.30;99.90;;;;;;486505;240;27510;-72
2021/09/10 02:57:16;;;;;;;5.40;4.90;;;17.30;99.90;;;;;;476939;249;28902;-72
2021/09/10 02:59:19;;;;;;;6.53;6.03;;;;;;;;;;470191;253;28922;-72
2021/09/10 03:01:21;;;;;;;6.27;5.77;;;;;;;;;;484666;235;27311;-71
2021/09/10 03:03:23;;;;;;;5.83;5.33;;;17.30;99.90;;;;;;487073;244;27876;-71
2021/09/10 03:05:25;;;;;;;6.03;5.53;;;;;;;;;;487607;242;27628;-72
2021/09/10 03:07:27;;;;;;;6.27;5.77;;;;;;;;;;492781;241;27376;-70
2021/09/10 03:09:30;;;;;;;5.53;5.13;;;;;;;;;;493594;240;27472;-72
2021/09/10 03:11:33;;;;;;;6.07;5.57;;;;;;;;;;492921;236;26746;-72
2021/09/10 03:13:35;;;;;;;6.27;5.77;;;17.20;99.90;;;;;;484556;245;26410;-72
2021/09/10 03:15:38;;;;;;;5.57;5.13;;;;;;;;;;484559;245;27618;-72
2021/09/10 03:17:39;;;;;;;5.90;5.40;;;17.20;99.90;;;;;;484573;245;27502;-72
2021/09/10 03:19:41;;;;;;;6.10;5.60;;;;;;;;;;484552;245;29006;-72
2021/09/10 03:21:43;;;;;;;5.53;5.03;;;;;;;;;;484686;234;27475;-72
2021/09/10 03:23:44;;;;;;;6.70;6.10;;;17.10;99.90;;;;;;482618;245;27524;-72
2021/09/10 03:25:46;;;;;;;6.50;6.00;;;;;;;;;;482699;243;28785;-72
2021/09/10 03:27:47;;;;;;;6.87;6.20;;;17.20;99.90;;;;;;488908;243;27427;-71
2021/09/10 03:29:49;;;;;;;6.23;5.70;;;17.20;99.90;;;;;;488505;243;29200;-71
2021/09/10 03:31:51;;;;;;;6.10;5.50;;;;;;;;;;487366;238;29204;-72
2021/09/10 03:33:53;;;;;;;6.20;5.70;;;;;;;;;;488529;243;27991;-71
2021/09/10 03:35:55;;;;;;;5.67;5.23;;;;;;;;;;488527;243;27442;-71
2021/09/10 03:37:57;;;;;;;6.43;5.90;;;;;;;;;;485513;243;27440;-71
2021/09/10 03:39:59;;;;;;;5.80;5.30;;;;;;;;;;482863;245;27535;-72
2021/09/10 03:42:01;;;;;;;5.90;5.40;;;;;;;;;;481939;245;27518;-72
2021/09/10 03:44:03;;;;;;;5.37;4.97;;;17.10;99.90;;;;;;485952;244;27589;-70
2021/09/10 03:46:05;;;;;;;5.80;5.30;;;;;;;;;;486228;243;26749;-70
2021/09/10 03:48:07;;;;;;;5.93;5.40;;;;;;;;;;494840;239;27986;-70
2021/09/10 03:50:10;;;;;;;6.40;5.90;;;;;;;;;;495135;239;27995;-70
2021/09/10 03:52:12;;;;;;;6.17;5.60;;;;;;;;;;482781;245;28031;-72
2021/09/10 03:54:14;;;;;;;6.20;5.67;;;17.00;99.90;;;;;;482628;244;27510;-69
2021/09/10 03:56:16;;;;;;;5.37;4.93;;;;;;;;;;486196;243;27533;-72
2021/09/10 03:58:18;;;;;;;6.00;5.40;;;;;;;;;;494809;240;27549;-71
2021/09/10 04:00:20;;;;;;;5.47;4.97;;;;;;;;;;487057;243;27394;-72
2021/09/10 04:02:22;;;;;;;5.60;5.20;;;;;;;;;;481437;247;27828;-70
2021/09/10 04:04:26;;;;;;;6.63;5.27;;;;;;;;;;488013;243;28080;-70
2021/09/10 04:06:28;;;;;;;5.87;5.40;;;;;;;;;;488148;243;26345;-69
2021/09/10 04:08:31;;;;;;;6.03;5.53;;;;;;;;;;488108;243;27498;-70
2021/09/10 04:10:33;;;;;;;5.93;5.43;;;17.10;99.90;;;;;;488142;243;26844;-70
2021/09/10 04:12:36;;;;;;;5.20;4.73;;;;;;;;;;488136;243;27528;-69
2021/09/10 04:14:39;;;;;;;5.57;5.07;;;;;;;;;;488127;243;27601;-70
2021/09/10 04:16:41;;;;;;;5.20;4.80;;;;;;;;;;488122;243;26811;-70
2021/09/10 04:18:43;;;;;;;5.50;5.00;;;;;;;;;;488139;243;27948;-69
2021/09/10 04:20:44;;;;;;;5.80;5.20;;;17.00;99.90;;;;;;488125;243;27491;-70
2021/09/10 04:22:46;;;;;;;5.47;5.07;;;;;;;;;;481254;243;28838;-70
2021/09/10 04:24:49;;;;;;;5.70;5.20;;;;;;;;;;478418;248;27535;-69
2021/09/10 04:26:52;;;;;;;6.57;5.53;;;;;;;;;;496759;238;27363;-70
2021/09/10 04:28:52;;;;;;;5.40;4.90;;;17.10;99.90;;;;;;496750;239;27354;-70
2021/09/10 04:30:53;;;;;;;5.30;4.80;;;17.00;99.90;;;;;;496773;239;28729;-70
2021/09/10 04:32:54;;;;;;;5.60;5.03;;;17.20;99.90;;;;;;496782;239;28768;-69
2021/09/10 04:34:56;;;;;;;5.67;5.17;;;;;;;;;;496780;239;28807;-70
2021/09/10 04:36:58;;;;;;;5.70;5.20;;;;;;;;;;496829;239;27460;-70
2021/09/10 04:39:00;;;;;;;5.67;5.17;;;;;;;;;;490320;239;27496;-72
2021/09/10 04:41:03;;;;;;;6.40;5.80;;;;;;;;;;490464;242;27507;-70
2021/09/10 04:43:05;;;;;;;5.53;5.03;;;;;;;;;;486001;242;27520;-70
2021/09/10 04:45:08;;;;;;;5.93;5.43;;;;;;;;;;477422;248;27564;-69
2021/09/10 04:47:11;;;;;;;5.80;5.40;;;;;;;;;;477319;248;26479;-71
2021/09/10 04:49:13;;;;;;;6.10;5.60;;;;;;;;;;480221;244;26783;-70
2021/09/10 04:51:15;;;;;;;4.87;4.53;;;;;;;;;;481695;244;27843;-72
2021/09/10 04:53:17;;;;;;;5.57;5.17;;;;;;;;;;477422;248;28010;-72
2021/09/10 04:55:20;;;;;;;5.93;5.43;;;;;;;;;;477463;248;27944;-71
2021/09/10 04:57:22;;;;;;;6.23;5.73;;;;;;;;;;485721;244;27473;-70
2021/09/10 04:59:24;;;;;;;6.00;5.53;;;;;;;;;;485748;244;27555;-70
2021/09/10 05:01:27;;;;;;;5.40;5.00;;;;;;;;;;485771;244;27480;-70
2021/09/10 05:03:29;;;;;;;5.40;4.90;;;;;;;;;;474495;248;26300;-70
2021/09/10 05:05:30;;;;;;;7.87;6.33;;;16.90;99.90;;;;;;484794;244;27491;-72
2021/09/10 05:07:31;;;;;;;5.63;5.13;;;17.00;99.90;;;;;;480205;243;28895;-71
2021/09/10 05:09:34;;;;;;;6.60;5.93;;;;;;;;;;483355;242;28806;-70
2021/09/10 05:11:35;;;;;;;6.43;5.73;;;17.00;99.90;;;;;;486406;242;27484;-70
2021/09/10 05:13:37;;;;;;;5.60;5.10;;;;;;;;;;488939;242;28862;-72
2021/09/10 05:15:38;;;;;;;5.40;4.90;;;17.00;99.90;;;;;;477956;248;27556;-72
2021/09/10 05:17:42;;;;;;;5.77;5.27;;;;;;;;;;482986;240;28836;-69
2021/09/10 05:19:44;;;;;;;5.40;5.00;;;;;;;;;;490128;242;26782;-71
2021/09/10 05:21:46;;;;;;;5.80;4.97;;;;;;;;;;490349;242;27960;-69
2021/09/10 05:23:48;;;;;;;6.00;5.50;;;;;;;;;;488141;242;28071;-72
2021/09/10 05:25:50;;;;;;;6.00;5.30;;;;;;;;;;481404;246;28092;-70
2021/09/10 05:27:52;;;;;;;6.40;5.80;;;;;;;;;;482225;246;28019;-70
2021/09/10 05:29:55;;;;;;;5.90;5.40;;;;;;;;;;487904;243;27450;-71
2021/09/10 05:31:57;;;;;;;6.20;5.13;;;;;;;;;;487671;243;26398;-70
2021/09/10 05:33:59;;;;;;;6.40;5.83;;;;;;;;;;483091;243;27612;-71
2021/09/10 05:36:02;;;;;;;6.10;5.60;;;;;;;;;;472508;248;27427;-71
2021/09/10 05:38:04;;;;;;;5.60;5.20;;;;;;;;;;471858;252;27537;-70
2021/09/10 05:40:08;;;;;;;6.33;5.20;;;;;;;;;;473713;249;27524;-71
2021/09/10 05:42:10;;;;;;;6.27;5.77;;;;;;;;;;475468;243;26402;-70
2021/09/10 05:44:12;;;;;;;6.43;5.83;;;;;;;;;;477506;248;27558;-68
2021/09/10 05:46:13;;;;;;;5.70;5.23;;;17.10;99.90;;;;;;484070;245;27429;-71
2021/09/10 05:48:18;;;;;;;5.67;5.17;;;17.20;99.90;;;;;;485408;245;28757;-72
2021/09/10 05:50:15;;;;;;;6.50;5.90;;;17.20;99.90;;;;;;480287;245;29365;-72
2021/09/10 05:52:17;;;;;;;5.90;5.40;;;17.20;99.90;;;;;;476982;249;29357;-72
2021/09/10 05:54:18;;;;;;;6.20;5.70;;;17.30;99.90;;;;;;477226;249;29412;-69
2021/09/10 05:56:19;;;;;;;6.53;5.57;;;17.30;99.90;;;;;;477352;249;28906;-69
2021/09/10 05:58:20;;;;;;;5.93;5.40;;;17.40;99.90;;;;;;477349;249;28851;-72
2021/09/10 06:00:22;;;;;;;6.33;5.73;;;17.40;99.90;;;;;;477344;249;28862;-72
2021/09/10 06:02:23;;;;;;;6.00;5.50;;;17.40;99.90;;;;;;477366;249;28898;-71
2021/09/10 06:04:24;;;;;;;6.17;5.67;;;17.50;99.90;;;;;;477370;249;28861;-72
2021/09/10 06:06:25;;;;;;;5.37;4.97;;;17.50;99.90;;;;;;477352;249;28903;-72
2021/09/10 06:08:27;;;;;;;5.60;4.93;;;17.60;99.90;;;;;;477412;249;28857;-72
2021/09/10 06:10:28;;;;;;;5.80;5.10;;;17.60;99.90;;;;;;480310;244;28838;-71
2021/09/10 06:12:29;;;;;;;5.00;4.60;;;17.60;99.90;;;;;;477339;249;28881;-72
2021/09/10 06:14:30;;;;;;;5.13;4.73;;;17.60;99.90;;;;;;477075;249;29358;-72
2021/09/10 06:16:32;;;;;;;5.80;5.30;;;17.70;99.90;;;;;;476129;249;29300;-72
2021/09/10 06:18:33;;;;;;;4.77;4.37;;;17.70;99.90;;;;;;477329;244;30263;-72
2021/09/10 06:20:34;;;;;;;5.83;5.33;;;17.70;99.90;;;;;;475520;249;29347;-72
2021/09/10 06:22:35;;;;;;;5.30;4.80;;;17.80;99.90;;;;;;477313;249;28980;-72
2021/09/10 06:24:37;;;;;;;4.77;4.37;;;17.90;99.90;;;;;;477186;249;28860;-71
2021/09/10 06:26:38;;;;;;;5.50;5.00;;;17.90;99.90;;;;;;477341;249;28869;-71
2021/09/10 06:28:39;;;;;;;5.07;4.67;;;17.90;99.90;;;;;;477279;249;28965;-71
2021/09/10 06:30:40;;;;;;;5.20;4.80;;;18.00;99.90;;;;;;477338;249;28952;-71
2021/09/10 06:32:42;;;;;;;5.23;4.73;;;18.00;99.90;;;;;;482791;236;28870;-72
2021/09/10 06:34:43;;;;;;;7.70;4.93;;;18.00;99.90;;;;;;483144;246;28735;-72
2021/09/10 06:36:44;;;;;;;5.37;4.97;;;18.00;99.90;;;;;;483141;246;28761;-71
2021/09/10 06:38:45;;;;;;;6.57;4.90;;;18.00;99.90;;;;;;483136;246;29305;-72
2021/09/10 06:40:47;;;;;;;5.10;4.70;;;18.10;99.90;;;;;;483150;246;29487;-72
2021/09/10 06:42:51;;;;;;;5.07;4.70;;;18.20;99.90;;;;;;487749;240;29347;-71
2021/09/10 06:44:52;;;;;;;4.83;4.43;;;18.20;99.90;;;;;;480327;242;28747;-71
2021/09/10 06:46:52;;;;;;;4.97;4.57;;;18.20;99.90;;;;;;487281;242;28813;-71
2021/09/10 06:48:54;;;;;;;5.30;4.90;;;18.20;99.90;;;;;;480767;242;29347;-71
2021/09/10 06:50:55;;;;;;;5.40;5.00;;;18.20;99.90;;;;;;475605;246;29479;-71
2021/09/10 06:52:56;;;;;;;5.43;4.97;;;18.20;99.90;;;;;;483115;242;29405;-72
2021/09/10 06:54:58;;;;;;;5.20;4.70;;;18.20;99.90;;;;;;480814;247;28827;-71
2021/09/10 06:57:00;;;;;;;4.80;4.40;;;18.20;99.90;;;;;;475092;247;28861;-71
2021/09/10 06:59:01;;;;;;;5.77;5.27;;;18.20;99.90;;;;;;479208;247;28761;-71
2021/09/10 07:01:03;;;;;;;5.37;4.87;;;18.20;99.90;;;;;;478714;247;29382;-71
2021/09/10 07:03:04;;;;;;;5.10;4.70;;;18.20;99.90;;;;;;478710;247;29382;-69
2021/09/10 07:05:05;;;;;;;5.23;4.80;;;18.10;99.90;;;;;;478719;248;29366;-72
2021/09/10 07:07:06;;;;;;;4.93;4.53;;;18.10;99.90;;;;;;478729;247;28801;-72
2021/09/10 07:09:07;;;;;;;5.40;5.00;;;18.00;99.90;;;;;;473887;247;28748;-72
2021/09/10 07:13:10;;;;;;;6.03;4.40;;;18.00;99.90;;;;;;490930;241;28907;-71
2021/09/10 07:15:11;;;;;;;5.03;4.63;;;18.00;99.90;;;;;;493924;241;28758;-70
2021/09/10 07:17:13;;;;;;;5.13;4.67;;;17.90;99.90;;;;;;493937;241;28816;-70
2021/09/10 07:19:14;;;;;;;5.93;5.43;;;17.90;99.90;;;;;;493907;241;29139;-70
2021/09/10 07:21:16;;;;;;;5.23;4.73;;;17.80;99.90;;;;;;487097;238;28782;-72
2021/09/10 07:23:17;;;;;;;6.17;5.10;;;17.70;99.90;;;;;;481039;241;28867;-72
2021/09/10 07:25:18;;;;;;;5.00;4.60;;;17.70;99.90;;;;;;480828;247;29272;-70
2021/09/10 07:27:19;;;;;;;5.30;4.90;;;17.70;99.90;;;;;;480952;247;29418;-70
2021/09/10 07:29:22;;;;;;;4.70;4.30;;;17.70;99.90;;;;;;481392;243;29380;-70
2021/09/10 07:31:22;;;;;;;5.40;4.67;;;17.60;99.90;;;;;;475458;236;29805;-72
2021/09/10 07:33:23;;;;;;;7.17;5.40;;;17.60;99.90;;;;;;485192;243;29002;-69
2021/09/10 07:35:24;;;;;;;5.50;5.00;;;17.50;99.90;;;;;;484069;245;28917;-70
2021/09/10 07:37:30;;;;;;;5.63;5.17;;;17.50;99.90;;;;;;484957;243;29046;-69
2021/09/10 07:39:30;;;;;;;5.47;5.03;;;17.50;99.90;;;;;;489414;239;28678;-69
2021/09/10 07:41:31;;;;;;;6.10;5.50;;;17.50;99.90;;;;;;486314;235;28817;-71
2021/09/10 07:43:32;;;;;;;6.00;5.50;;;17.40;99.90;;;;;;472426;251;29320;-72
2021/09/10 07:45:35;;;;;;;6.23;5.73;;;;;;;;;;473872;249;29389;-70
2021/09/10 07:47:37;;;;;;;6.03;5.43;;;;;;;;;;473809;250;28021;-71
2021/09/10 07:49:39;;;;;;;6.37;5.87;;;;;;;;;;473820;250;27535;-71
2021/09/10 07:51:41;;;;;;;6.47;5.90;;;17.50;99.90;;;;;;479304;234;27467;-72
2021/09/10 07:53:41;;;;;;;5.90;5.40;;;17.50;99.90;;;;;;493827;240;28923;-69
2021/09/10 07:55:42;;;;;;;5.37;4.87;;;17.60;99.90;;;;;;500113;236;28783;-71
2021/09/10 07:57:44;;;;;;;5.40;4.97;;;17.60;99.90;;;;;;502581;234;28893;-69
2021/09/10 07:59:45;;;;;;;5.47;4.97;;;17.70;99.90;;;;;;502579;236;28776;-69
2021/09/10 08:01:46;;;;;;;5.90;5.40;;;17.80;99.90;;;;;;495100;236;28835;-70
2021/09/10 08:03:47;;;;;;;5.50;5.10;;;17.90;99.90;;;;;;484705;245;28755;-72
2021/09/10 08:05:49;;;;;;;5.00;4.60;;;17.90;99.90;;;;;;484753;245;28787;-70
2021/09/10 08:07:50;;;;;;;4.83;4.50;;;18.00;99.90;;;;;;484668;245;28715;-70
2021/09/10 08:09:51;;;;;;;5.17;4.77;;;18.10;99.90;;;;;;484729;245;29174;-69
2021/09/10 08:11:52;;;;;;;4.73;4.33;;;18.10;99.90;;;;;;484232;242;29360;-71
2021/09/10 08:13:54;;;;;;;5.10;4.70;;;18.10;99.90;;;;;;484719;245;29258;-71
2021/09/10 08:15:55;;;;;;;5.40;5.00;;;18.10;99.90;;;;;;484764;245;28708;-70
2021/09/10 08:17:56;;;;;;;5.87;5.43;;;18.10;99.90;;;;;;484745;245;28818;-70
2021/09/10 08:19:57;;;;;;;5.50;5.10;;;18.10;99.90;;;;;;484720;245;28755;-72
2021/09/10 08:21:59;;;;;;;5.40;4.90;;;18.20;99.90;;;;;;489576;238;28842;-70
2021/09/10 08:24:00;;;;;;;5.63;5.10;;;18.20;99.90;;;;;;499602;238;28776;-72
2021/09/10 08:26:03;;;;;;;5.10;4.70;;;18.30;99.90;;;;;;499714;238;28763;-69
2021/09/10 08:28:04;;;;;;;5.07;4.67;;;18.30;99.90;;;;;;499690;238;28875;-70
2021/09/10 08:30:06;;;;;;;5.20;4.80;;;18.30;99.90;;;;;;499686;238;28776;-71
2021/09/10 08:32:07;;;;;;;5.90;5.40;;;18.30;99.90;;;;;;490547;238;29328;-70
2021/09/10 08:34:08;;;;;;;5.57;5.07;;;18.30;99.90;;;;;;484750;245;29361;-69
2021/09/10 08:36:09;;;;;;;6.07;5.67;;;18.20;99.90;;;;;;478580;245;29362;-72
2021/09/10 08:38:12;;;;;;;5.90;5.40;;;18.20;99.90;;;;;;475131;250;28920;-70
2021/09/10 08:40:13;;;;;;;6.13;5.63;;;18.20;99.90;;;;;;475676;250;28972;-70
2021/09/10 08:42:15;;;;;;;5.23;4.83;;;18.20;99.90;;;;;;472175;235;28891;-71
2021/09/10 08:44:16;;;;;;;5.80;5.30;;;18.20;99.90;;;;;;468499;253;29343;-72
2021/09/10 08:46:17;;;;;;;5.83;5.30;;;18.20;99.90;;;;;;468459;253;29324;-72
2021/09/10 08:48:18;;;;;;;6.43;5.90;;;18.30;99.90;;;;;;468559;253;29435;-71
2021/09/10 08:50:20;;;;;;;5.90;5.43;;;18.20;99.90;;;;;;467951;252;28990;-71
2021/09/10 08:52:22;;;;;;;6.00;5.50;;;18.20;99.90;;;;;;467040;242;28813;-71
2021/09/10 08:54:22;;;;;;;6.40;5.80;;;18.30;99.90;;;;;;470457;250;28806;-71
2021/09/10 08:56:23;;;;;;;6.40;5.20;;;18.30;99.90;;;;;;466844;255;28842;-71
2021/09/10 08:58:25;;;;;;;5.83;5.33;;;18.30;99.90;;;;;;466858;255;28868;-72
2021/09/10 09:00:26;;;;;;;6.20;5.70;;;18.40;99.90;;;;;;466930;254;28837;-70
2021/09/10 09:02:27;;;;;;;10.90;5.00;;;18.50;99.90;;;;;;474581;239;28933;-72
2021/09/10 09:04:28;;;;;;;6.10;5.60;;;18.50;99.90;;;;;;475725;248;28931;-71
2021/09/10 09:06:30;;;;;;;6.77;5.40;;;18.60;99.90;;;;;;475633;248;28940;-71
2021/09/10 09:08:31;;;;;;;6.50;5.83;;;18.70;99.90;;;;;;475556;248;29335;-71
2021/09/10 09:10:32;;;;;;;6.90;5.80;;;18.80;99.90;;;;;;475666;248;29298;-69
2021/09/10 09:12:33;;;;;;;6.00;5.50;;;18.90;99.90;;;;;;475558;248;29360;-70
2021/09/10 09:14:35;;;;;;;5.77;5.27;;;19.00;99.90;;;;;;475761;248;28842;-72
2021/09/10 09:16:38;;;;;;;5.80;5.30;;;19.10;99.90;;;;;;475693;248;28842;-70
2021/09/10 09:18:37;;;;;;;6.20;5.67;;;19.10;99.90;;;;;;475661;244;28835;-71
2021/09/10 09:20:38;;;;;;;6.87;6.27;;;19.10;99.90;;;;;;475678;248;28930;-72
2021/09/10 09:22:41;;;;;;;6.40;5.87;;;19.20;99.90;;;;;;480727;234;28997;-70
2021/09/10 09:24:41;;;;;;;7.30;5.93;;;19.30;99.90;;;;;;479407;245;28853;-70
2021/09/10 09:26:42;;;;;;;6.53;5.23;;;19.40;99.90;;;;;;481033;245;28867;-70
2021/09/10 09:28:43;;;;;;;6.07;5.47;;;19.50;99.90;;;;;;476279;246;28925;-70
2021/09/10 09:30:45;;;;;;;5.70;5.20;;;19.50;99.90;;;;;;479566;245;28982;-71
2021/09/10 09:32:46;;;;;;;6.67;6.07;;;19.60;99.90;;;;;;476939;245;29344;-71
2021/09/10 09:34:47;;;;;;;7.20;6.50;;;19.70;99.90;;;;;;476850;249;30158;-71
2021/09/10 09:36:48;;;;;;;6.20;5.70;;;19.90;99.90;;;;;;476823;249;29610;-72
2021/09/10 09:38:50;;;;;;;6.43;5.73;;;20.00;99.90;;;;;;477062;245;28898;-72
2021/09/10 09:40:51;;;;;;;6.77;6.17;;;20.10;99.90;;;;;;479173;245;28868;-71
2021/09/10 09:42:52;;;;;;;6.33;5.73;;;20.20;99.90;;;;;;485077;245;28807;-71
2021/09/10 09:44:53;;;;;;;7.20;6.60;;;20.10;99.90;;;;;;482739;245;28931;-71
2021/09/10 09:46:55;;;;;;;7.20;6.50;;;20.10;99.90;;;;;;484804;245;29318;-71
2021/09/10 09:48:56;;;;;;;8.07;6.40;;;20.10;99.90;;;;;;484683;245;30215;-71
2021/09/10 09:50:57;;;;;;;6.97;6.37;;;20.00;99.90;;;;;;484330;245;28894;-71
2021/09/10 09:52:58;;;;;;;7.00;6.30;;;20.00;99.90;;;;;;484976;245;28885;-72
2021/09/10 09:55:00;;;;;;;7.37;6.67;;;20.00;99.90;;;;;;485046;245;28787;-71
2021/09/10 09:57:01;;;;;;;6.93;6.27;;;20.00;99.90;;;;;;484934;245;28872;-71
2021/09/10 09:59:02;;;;;;;7.30;6.60;;;20.10;99.90;;;;;;485033;245;28744;-71
2021/09/10 10:01:03;;;;;;;7.03;6.43;;;20.20;99.90;;;;;;485001;245;28771;-71
2021/09/10 10:03:05;;;;;;;6.77;6.17;;;20.20;99.90;;;;;;484605;245;28814;-71
2021/09/10 10:05:06;;;;;;;7.47;6.80;;;20.30;99.90;;;;;;485004;245;28871;-71
2021/09/10 10:07:07;;;;;;;6.53;6.03;;;20.30;99.90;;;;;;485026;245;28777;-71
2021/09/10 10:09:08;;;;;;;7.00;6.40;;;20.30;99.90;;;;;;484998;245;29250;-71
2021/09/10 10:11:10;;;;;;;6.23;5.70;;;20.30;99.90;;;;;;485025;245;29230;-71
2021/09/10 10:13:11;;;;;;;7.50;6.80;;;20.30;99.90;;;;;;485011;245;29487;-71
2021/09/10 10:15:12;;;;;;;6.80;6.20;;;20.40;99.90;;;;;;485021;245;28807;-71
2021/09/10 10:17:13;;;;;;;7.23;6.57;;;20.50;99.90;;;;;;485001;245;28839;-71
2021/09/10 10:19:15;;;;;;;9.10;6.57;;;20.50;99.90;;;;;;485003;243;28863;-71
2021/09/10 10:21:16;;;;;;;7.20;6.60;;;20.60;99.90;;;;;;484990;245;28825;-71
2021/09/10 10:23:17;;;;;;;7.50;6.60;;;20.60;99.90;;;;;;484992;245;28816;-71
2021/09/10 10:25:18;;;;;;;6.73;6.13;;;20.70;99.90;;;;;;485011;245;28823;-71
2021/09/10 10:27:20;;;;;;;5.90;5.40;;;20.90;99.90;;;;;;485028;245;28760;-71
2021/09/10 10:29:21;;;;;;;7.40;6.70;;;21.00;99.90;;;;;;485024;245;28830;-72
2021/09/10 10:31:22;;;;;;;6.73;6.13;;;21.10;99.90;;;;;;485013;245;28765;-72
2021/09/10 10:33:24;;;;;;;6.20;5.50;;;21.30;99.90;;;;;;484975;245;29239;-71
2021/09/10 10:35:25;;;;;;;7.50;6.00;;;21.30;99.90;;;;;;484910;245;29285;-72
2021/09/10 10:37:26;;;;;;;7.00;6.40;;;21.30;99.90;;;;;;485008;245;29320;-71
2021/09/10 10:39:30;;;;;;;6.27;5.67;;;21.30;99.90;;;;;;485024;245;28878;-71
2021/09/10 10:41:28;;;;;;;6.83;6.23;;;21.30;99.90;;;;;;484907;245;28782;-71
2021/09/10 10:43:30;;;;;;;6.87;6.27;;;21.40;99.90;;;;;;484975;245;28855;-71
2021/09/10 10:45:31;;;;;;;6.43;5.83;;;21.50;99.90;;;;;;484994;245;28799;-71
2021/09/10 10:47:32;;;;;;;7.43;6.83;;;21.60;99.90;;;;;;485020;245;28760;-70
2021/09/10 10:49:33;;;;;;;7.33;6.60;;;21.40;99.90;;;;;;485016;245;28885;-71
2021/09/10 10:51:35;;;;;;;6.57;5.97;;;21.40;99.90;;;;;;485011;245;28809;-70
2021/09/10 10:53:36;;;;;;;6.20;5.70;;;21.40;99.90;;;;;;485053;245;28843;-71
2021/09/10 10:55:40;;;;;;;6.70;6.10;;;21.40;99.90;;;;;;485052;245;28790;-71
2021/09/10 10:57:38;;;;;;;6.63;6.10;;;21.40;99.90;;;;;;484816;245;29247;-71
2021/09/10 10:59:40;;;;;;;6.93;6.33;;;21.40;99.90;;;;;;485035;245;29355;-71
2021/09/10 11:01:41;;;;;;;7.10;6.50;;;21.40;99.90;;;;;;485033;245;29290;-71